Latest Weather Observations for Hamilton Island

IDQ60801

Issued at 9:02 pm EST Monday 25 May 2015 (issued every 30 minutes, with the page automatically refreshed every 10 minutes)

About weather observations | Map of weather stations | Latest weather observations for QLD | Other Formats
Station Details ID: 033106 Name: HAMILTON ISLAND AIRPORT Lat: -20.37 Lon: 148.95 Height: 58.66 m
Data from the previous 72 hours. | See also: Recent months at Hamilton Island
Date/Time
EST
Temp
°C
App
Temp
°C
Dew
Point
Rel
Hum
%
Delta-T
°C
Wind Press
QNH
hPa
Press
MSL
hPa
Rain
since 9 am
mm
Dir
 
Spd
km/h
Gust
km/h
Spd
kts
Gust
kts
25/09:00pm 22.5 19.4 18.3 77 2.6 SE 32 35 17 19 1023.8 1023.5 0.2
25/08:30pm 22.6 18.9 18.4 77 2.6 SE 35 43 19 23 1023.5 - 0.2
25/08:00pm 22.7 18.5 18.0 75 2.9 ESE 37 43 20 23 1023.2 - 0.2
25/07:30pm 22.4 17.4 18.0 76 2.7 SE 41 46 22 25 1023.2 - 0.2
25/07:00pm 22.3 18.7 18.5 79 2.4 SE 35 44 19 24 1023.0 - 0.2
25/06:30pm 22.7 19.2 17.8 74 3.1 SE 33 39 18 21 1022.9 - 0.2
25/06:00pm 23.0 19.1 17.9 73 3.2 ESE 35 43 19 23 1022.7 1022.4 0.2
25/05:30pm 22.7 18.9 17.2 71 3.4 ESE 33 39 18 21 1022.5 - 0.2
25/05:21pm 22.7 18.6 17.4 72 3.3 ESE 35 44 19 24 1022.3 - 0.2
25/05:00pm 21.7 18.1 19.4 87 1.5 SSE 37 43 20 23 1022.5 - 0.2
25/04:30pm 22.0 18.9 19.7 87 1.5 SSE 35 43 19 23 1022.4 - 0.2
25/04:00pm 21.9 17.4 19.1 84 1.8 SSE 41 46 22 25 1022.5 - 0.2
25/03:30pm 22.0 17.9 19.2 84 1.8 SSE 39 44 21 24 1022.4 - 0.2
25/03:00pm 22.0 17.5 19.0 83 1.9 SSE 41 50 22 27 1022.6 1022.3 0.2
25/02:39pm 22.1 17.5 18.9 82 2.0 SSE 41 46 22 25 1022.6 - 0.2
25/02:30pm 22.2 17.8 19.2 83 1.9 SSE 41 48 22 26 1022.6 - 0.2
25/02:20pm 22.0 17.2 19.2 84 1.8 SSE 43 48 23 26 1022.7 - 0.2
25/02:00pm 21.4 16.9 19.1 87 1.5 SSE 41 50 22 27 1022.8 - 0.2
25/01:30pm 21.7 17.4 18.7 83 1.9 SSE 39 46 21 25 1022.8 - 0.2
25/01:00pm 21.9 16.9 18.9 83 1.9 SSE 43 48 23 26 1023.0 - 0.2
25/12:30pm 22.5 17.5 18.9 80 2.3 SSE 43 52 23 28 1023.1 - 0.2
25/12:00pm 23.5 19.3 19.8 80 2.4 SE 41 50 22 27 1023.6 1023.3 0.2
25/11:30am 23.3 19.8 19.5 79 2.4 SE 37 54 20 29 1023.9 - 0.2
25/11:19am 23.0 19.1 18.7 77 2.7 SSE 37 56 20 30 1023.9 - 0.2
25/11:00am 22.9 19.0 18.7 77 2.7 SSE 37 44 20 24 1024.5 - 0.0
25/10:55am 23.2 19.0 18.1 73 3.2 SSE 37 44 20 24 1024.6 - 0.0
25/10:30am 25.1 20.0 17.6 63 4.7 ESE 41 46 22 25 1024.6 - 0.0
25/10:00am 24.8 20.3 18.3 67 4.1 SE 39 46 21 25 1025.1 - 0.0
25/09:30am 24.5 19.7 17.5 65 4.4 ESE 39 46 21 25 1025.0 - 0.0
25/09:00am 23.8 18.0 17.3 67 4.0 ESE 44 50 24 27 1024.8 1024.5 4.2
25/08:30am 23.6 17.5 16.6 65 4.3 ESE 44 57 24 31 1024.2 - 4.2
25/08:00am 22.8 17.2 17.5 72 3.3 ESE 43 52 23 28 1023.7 - 4.2
25/07:30am 22.3 16.2 17.7 75 2.9 ESE 46 57 25 31 1023.8 - 4.2
25/07:00am 22.7 16.7 16.9 70 3.6 ESE 44 52 24 28 1023.5 - 4.0
25/06:30am 22.6 15.9 17.1 71 3.4 ESE 48 57 26 31 1023.1 - 4.0
25/06:00am 22.6 16.2 16.9 70 3.5 ESE 46 57 25 31 1022.8 1022.5 4.0
25/05:30am 22.6 15.8 16.9 70 3.5 ESE 48 59 26 32 1022.5 - 4.0
25/05:00am 22.7 16.2 16.5 68 3.8 ESE 46 54 25 29 1022.4 - 4.0
25/04:30am 22.8 16.8 16.8 69 3.7 ESE 44 57 24 31 1022.2 - 4.0
25/04:00am 22.7 16.6 16.3 67 3.9 ESE 43 48 23 26 1022.3 - 4.0
25/03:30am 22.8 16.3 15.6 64 4.3 ESE 44 52 24 28 1022.3 - 4.0
25/03:00am 22.8 16.2 16.4 67 3.9 ESE 46 56 25 30 1022.6 1022.3 4.0
25/02:30am 22.8 16.7 16.6 68 3.8 ESE 44 52 24 28 1022.5 - 4.0
25/02:00am 22.9 15.5 16.2 66 4.1 ESE 50 61 27 33 1022.6 - 4.0
25/01:30am 22.8 15.8 16.4 67 3.9 ESE 48 61 26 33 1023.0 - 4.0
25/01:00am 22.8 16.8 17.9 74 3.1 ESE 46 61 25 33 1023.4 - 3.8
25/12:30am 22.9 17.0 16.7 68 3.8 ESE 43 50 23 27 1023.4 - 3.8
25/12:00am 23.1 18.0 17.6 71 3.4 ESE 41 52 22 28 1023.6 1023.3 3.8
 
Date/Time
EST
Temp
°C
App
Temp
°C
Dew
Point
Rel
Hum
%
Delta-T
°C
Wind Press
QNH
hPa
Press
MSL
hPa
Rain
since 9 am
mm
Dir
 
Spd
km/h
Gust
km/h
Spd
kts
Gust
kts
24/11:30pm 22.9 17.2 17.1 70 3.6 ESE 43 50 23 27 1023.5 - 3.8
24/11:00pm 22.9 17.3 17.4 71 3.4 ESE 43 54 23 29 1023.5 - 3.8
24/10:30pm 22.9 16.9 16.9 69 3.7 ESE 44 52 24 28 1023.4 - 3.8
24/10:00pm 22.9 16.6 17.1 70 3.6 ESE 46 57 25 31 1023.2 - 3.8
24/09:30pm 23.0 15.5 17.0 69 3.7 ESE 52 63 28 34 1023.3 - 3.8
24/09:00pm 22.2 17.1 19.0 82 2.0 ESE 44 50 24 27 1023.4 1023.1 3.8
24/08:30pm 22.5 17.2 18.5 78 2.5 ESE 44 56 24 30 1023.1 - 3.8
24/08:16pm 22.0 14.6 18.0 78 2.5 ESE 54 72 29 39 1022.9 - 3.8
24/08:00pm 23.1 17.1 18.8 77 2.7 ESE 48 57 26 31 1023.0 - 3.8
24/07:30pm 23.1 16.0 18.0 73 3.2 ESE 52 61 28 33 1022.7 - 3.8
24/07:00pm 23.1 16.8 18.0 73 3.2 ESE 48 57 26 31 1022.4 - 3.8
24/06:30pm 23.0 17.4 17.5 71 3.4 ESE 43 52 23 28 1022.4 - 3.8
24/06:00pm 22.9 17.1 17.4 71 3.4 ESE 44 61 24 33 1022.2 1021.9 3.8
24/05:30pm 22.9 16.8 17.6 72 3.3 ESE 46 59 25 32 1022.0 - 3.8
24/05:00pm 21.8 14.8 17.2 75 2.8 ESE 50 70 27 38 1021.4 - 3.8
24/04:59pm 22.4 15.7 17.1 72 3.3 ESE 48 70 26 38 1021.1 - 3.8
24/04:30pm 23.1 16.8 17.1 69 3.7 ESE 46 59 25 32 1021.1 - 3.8
24/04:00pm 23.1 16.1 17.3 70 3.6 ESE 50 57 27 31 1020.8 - 3.8
24/03:30pm 23.0 16.6 17.9 73 3.2 ESE 48 57 26 31 1020.5 - 3.8
24/03:00pm 22.6 17.9 18.6 78 2.5 SE 41 50 22 27 1020.5 1020.2 3.8
24/02:30pm 21.8 16.7 19.0 84 1.8 SE 44 59 24 32 1020.7 - 3.8
24/02:13pm 22.1 18.3 19.8 87 1.5 SE 39 46 21 25 1020.6 - 3.8
24/02:08pm 21.5 17.2 19.6 89 1.2 SE 41 50 22 27 1020.7 - 3.8
24/02:00pm 21.0 16.4 19.6 92 0.9 SSE 43 54 23 29 1020.6 - 3.8
24/01:54pm 21.0 17.4 20.2 95 0.5 SSE 39 46 21 25 1020.6 - 3.8
24/01:49pm 20.8 17.4 19.8 94 0.6 SSE 37 44 20 24 1020.7 - 3.6
24/01:30pm 21.5 17.7 20.5 94 0.6 SE 41 46 22 25 1020.7 - 3.2
24/01:19pm 21.4 17.6 20.6 95 0.5 SSE 41 46 22 25 1020.8 - 3.2
24/01:09pm 20.3 15.5 19.3 94 0.6 SSE 43 56 23 30 1021.0 - 3.2
24/01:01pm 20.7 16.2 19.9 95 0.5 SSE 43 50 23 27 1021.0 - 3.0
24/01:00pm 20.6 16.1 19.8 95 0.5 SSE 43 50 23 27 1021.0 - 3.0
24/12:30pm 20.5 15.1 19.2 92 0.8 SSE 46 56 25 30 1021.4 - 2.8
24/12:22pm 20.6 14.9 19.3 92 0.8 SSE 48 57 26 31 1021.5 - 2.8
24/12:00pm 21.1 17.1 20.1 94 0.6 SE 41 48 22 26 1021.7 1021.4 2.8
24/11:56am 20.9 16.8 19.9 94 0.6 SSE 41 48 22 26 1021.6 - 2.8
24/11:30am 20.2 14.9 19.4 95 0.5 SSE 46 56 25 30 1021.6 - 2.8
24/11:24am 20.1 14.8 19.4 96 0.4 SSE 46 56 25 30 1021.7 - 2.8
24/11:07am 20.0 14.4 19.5 97 0.3 SSE 48 57 26 31 1022.0 - 2.8
24/11:00am 20.0 14.7 19.5 97 0.3 SSE 46 56 25 30 1022.0 - 2.6
24/10:30am 19.2 14.8 18.5 96 0.4 S 39 48 21 26 1022.2 - 1.6
24/10:00am 18.9 13.4 18.2 96 0.4 SSE 44 56 24 30 1022.4 - 1.0
24/09:30am 18.5 13.4 17.8 96 0.4 S 41 54 22 29 1022.4 - 0.4
24/09:24am 18.3 13.6 17.7 96 0.4 S 39 50 21 27 1022.3 - 0.4
24/09:08am 18.4 14.5 17.9 97 0.3 S 35 46 19 25 1022.2 - 0.4
24/09:00am 18.2 13.9 17.7 97 0.3 S 37 50 20 27 1022.3 1022.0 9.2
24/08:57am 18.4 14.1 17.9 97 0.3 S 37 50 20 27 1022.3 - 9.2
24/08:30am 18.2 13.9 17.7 97 0.3 SSE 37 50 20 27 1022.2 - 8.6
24/08:12am 18.5 13.5 18.0 97 0.3 S 41 52 22 28 1022.0 - 7.8
24/08:00am 19.2 14.1 18.7 97 0.3 SSE 43 54 23 29 1021.7 - 7.6
24/07:35am 18.9 14.5 18.4 97 0.3 S 39 56 21 30 1021.4 - 7.4
24/07:32am 19.0 15.4 18.5 97 0.3 S 35 56 19 30 1021.4 - 7.4
24/07:30am 19.2 16.0 18.7 97 0.3 S 33 48 18 26 1021.4 - 7.4
24/07:19am 18.7 14.9 18.2 97 0.3 S 35 46 19 25 1021.4 - 7.2
24/07:14am 18.6 14.8 18.1 97 0.3 S 35 43 19 23 1021.4 - 6.8
24/07:00am 18.2 13.9 17.7 97 0.3 S 37 46 20 25 1021.2 - 6.8
24/06:42am 18.7 13.7 18.0 96 0.4 SSE 41 52 22 28 1021.0 - 5.2
24/06:30am 18.8 13.5 18.1 96 0.4 SSE 43 52 23 28 1020.7 - 4.8
24/06:00am 20.1 16.1 19.3 95 0.5 SE 39 44 21 24 1020.2 1019.9 4.6
24/05:58am 20.2 16.2 19.4 95 0.5 SE 39 46 21 25 1020.2 - 4.6
24/05:41am 20.3 15.5 19.6 96 0.4 SSE 44 54 24 29 1020.0 - 4.6
24/05:30am 19.6 15.0 18.9 96 0.4 SSE 41 50 22 27 1020.1 - 4.0
24/05:08am 19.7 14.6 19.0 96 0.4 SSE 44 63 24 34 1019.8 - 4.0
24/05:00am 19.8 13.2 19.1 96 0.4 SSE 52 63 28 34 1019.6 - 4.0
24/04:58am 19.6 12.5 18.9 96 0.4 SSE 54 61 29 33 1019.6 - 4.0
24/04:32am 20.1 13.7 19.4 96 0.4 SSE 52 61 28 33 1019.5 - 3.8
24/04:30am 19.9 13.4 19.2 96 0.4 SSE 52 61 28 33 1019.6 - 3.6
24/04:19am 19.6 12.9 18.9 96 0.4 SSE 52 61 28 33 1019.6 - 3.6
24/04:01am 20.0 14.3 19.3 96 0.4 SSE 48 57 26 31 1019.7 - 3.4
24/04:00am 20.0 14.3 19.3 96 0.4 SSE 48 57 26 31 1019.6 - 3.4
24/03:54am 19.8 15.3 19.1 96 0.4 SSE 41 56 22 30 1019.6 - 3.2
24/03:30am 19.8 14.0 19.1 96 0.4 SSE 48 56 26 30 1019.5 - 2.8
24/03:14am 19.8 14.7 19.1 96 0.4 SSE 44 54 24 29 1019.5 - 2.0
24/03:00am 19.2 14.0 18.4 95 0.5 S 43 54 23 29 1019.6 1019.3 1.6
24/02:32am 19.5 14.4 18.7 95 0.5 SSE 43 54 23 29 1019.4 - 1.4
24/02:30am 19.4 14.1 18.6 95 0.5 SSE 44 54 24 29 1019.2 - 1.4
24/02:04am 19.4 14.7 18.6 95 0.5 SSE 41 52 22 28 1019.4 - 0.8
24/02:00am 19.2 13.9 18.2 94 0.6 SSE 43 54 23 29 1019.5 - 0.8
24/01:47am 19.4 15.0 18.4 94 0.6 SSE 39 54 21 29 1019.6 - 0.2
24/01:33am 19.3 14.0 18.1 93 0.7 SSE 43 57 23 31 1019.5 - 0.0
24/01:32am 19.4 14.1 18.1 92 0.8 SSE 43 57 23 31 1019.6 - 0.0
24/01:30am 19.5 14.0 18.2 92 0.8 SSE 44 57 24 31 1019.5 - 0.0
24/01:18am 20.1 14.6 18.2 89 1.2 SSE 44 56 24 30 1019.7 - 0.0
24/01:00am 20.0 14.1 16.8 82 1.9 SSE 43 54 23 29 1019.8 - 0.0
24/12:34am 20.5 15.2 17.3 82 2.0 SSE 41 50 22 27 1019.9 - 0.0
24/12:30am 20.5 15.6 17.3 82 2.0 SSE 39 48 21 26 1019.9 - 0.0
24/12:00am 20.3 15.1 16.5 79 2.3 SSE 39 50 21 27 1020.0 1019.7 0.0
 
Date/Time
EST
Temp
°C
App
Temp
°C
Dew
Point
Rel
Hum
%
Delta-T
°C
Wind Press
QNH
hPa
Press
MSL
hPa
Rain
since 9 am
mm
Dir
 
Spd
km/h
Gust
km/h
Spd
kts
Gust
kts
23/11:30pm 20.5 14.9 16.5 78 2.4 SSE 41 50 22 27 1020.3 - 0.0
23/11:00pm 20.6 15.6 16.0 75 2.8 SSE 37 48 20 26 1020.5 - 0.0
23/10:30pm 20.4 15.8 15.2 72 3.1 S 33 43 18 23 1020.8 - 0.0
23/10:00pm 20.4 15.8 15.0 71 3.2 SSE 33 43 18 23 1021.0 - 0.0
23/09:30pm 20.3 15.2 14.9 71 3.2 SSE 35 43 19 23 1021.0 - 0.0
23/09:00pm 20.0 14.3 14.1 69 3.4 SSE 37 44 20 24 1021.4 1021.1 0.0
23/08:30pm 20.0 15.1 14.4 70 3.3 SSE 33 43 18 23 1021.5 - 0.0
23/08:00pm 20.3 13.8 15.1 72 3.1 SSE 43 50 23 27 1021.1 - 0.0
23/07:30pm 20.0 15.1 15.2 74 2.8 SSE 35 44 19 24 1021.0 - 0.0
23/07:00pm 19.6 13.8 15.0 75 2.7 SSE 39 44 21 24 1020.8 - 0.0
23/06:30pm 19.6 14.0 15.5 77 2.4 SSE 39 46 21 25 1020.7 - 0.0
23/06:00pm 19.2 13.8 14.9 76 2.5 SSE 37 46 20 25 1020.3 1020.0 0.0
23/05:30pm 19.3 13.6 15.2 77 2.4 SSE 39 48 21 26 1020.3 - 0.0
23/05:00pm 19.4 14.0 15.1 76 2.5 SSE 37 43 20 23 1020.1 - 0.0
23/04:30pm 19.4 13.9 14.6 74 2.8 SSE 37 44 20 24 1019.8 - 0.0
23/04:00pm 19.6 14.9 14.8 74 2.8 SSE 33 41 18 22 1019.8 - 0.0
23/03:30pm 19.6 14.7 14.4 72 3.0 SSE 33 41 18 22 1019.6 - 0.0
23/03:00pm 19.6 14.5 13.8 69 3.3 SSE 33 41 18 22 1019.6 1019.3 0.0
23/02:30pm 19.1 13.7 12.8 67 3.6 SSE 33 43 18 23 1019.6 - 0.0
23/02:00pm 19.2 12.7 12.9 67 3.6 SSE 39 50 21 27 1019.8 - 0.0
23/01:30pm 19.1 12.9 12.8 67 3.6 SSE 37 46 20 25 1020.0 - 0.0
23/01:00pm 19.5 13.2 13.4 68 3.5 SSE 39 46 21 25 1020.4 - 0.0
23/12:30pm 19.1 12.3 13.1 68 3.4 SSE 41 48 22 26 1020.7 - 0.0
23/12:00pm 18.8 11.5 12.8 68 3.4 SSE 43 50 23 27 1021.1 1020.8 0.0
23/11:30am 18.5 11.6 12.9 70 3.2 SSE 41 52 22 28 1021.5 - 0.0
23/11:00am 18.2 11.8 13.1 72 2.9 SSE 39 52 21 28 1021.8 - 0.0
23/10:30am 17.8 11.0 12.0 69 3.2 SSE 39 50 21 27 1021.9 - 0.0
23/10:00am 17.9 10.8 12.1 69 3.2 SSE 41 52 22 28 1022.0 - 0.0
23/09:30am 17.3 9.2 10.9 66 3.4 SSE 44 52 24 28 1021.9 - 0.0
23/09:00am 17.2 9.1 10.6 65 3.5 SSE 44 56 24 30 1021.9 1021.6 0.0
23/08:30am 17.4 9.6 11.7 69 3.1 SSE 44 56 24 30 1021.8 - 0.0
23/08:00am 16.3 7.7 10.2 67 3.2 SSE 46 57 25 31 1021.4 - 0.0
23/07:30am 16.5 7.5 10.1 66 3.4 SSE 48 59 26 32 1021.1 - 0.0
23/07:00am 16.3 6.1 9.9 66 3.4 SSE 54 67 29 36 1020.6 - 0.0
23/06:30am 16.5 7.4 9.9 65 3.5 SSE 48 57 26 31 1020.1 - 0.0
23/06:00am 16.8 7.3 8.2 57 4.4 SSE 48 59 26 32 1019.6 1019.3 0.0
23/05:30am 16.8 8.5 9.2 61 4.0 SSE 43 54 23 29 1019.6 - 0.0
23/05:00am 17.3 8.9 9.7 61 4.0 SSE 44 57 24 31 1018.9 - 0.0
23/04:30am 17.8 9.8 10.4 62 4.0 SSE 43 54 23 29 1018.9 - 0.0
23/04:00am 18.4 7.9 8.9 54 5.0 SSE 54 65 29 35 1018.4 - 0.0
23/03:30am 18.4 8.8 12.2 67 3.4 SSE 54 65 29 35 1018.2 - 0.0
23/03:00am 18.9 10.2 12.4 66 3.6 SSE 50 59 27 32 1018.3 1018.1 0.0
23/02:30am 19.5 9.8 11.8 61 4.3 SSE 54 67 29 36 1018.4 - 0.0
23/02:00am 19.6 10.9 10.0 54 5.2 SSE 46 56 25 30 1018.7 - 0.0
23/01:30am 20.1 10.6 9.7 51 5.6 SSE 50 59 27 32 1018.7 - 0.0
23/01:00am 20.5 11.2 9.1 48 6.0 SSE 48 59 26 32 1018.8 - 0.0
23/12:30am 20.8 11.7 9.7 49 6.0 SSE 48 57 26 31 1018.9 - 0.0
23/12:00am 21.1 10.6 7.3 41 7.1 SSE 52 59 28 32 1018.9 1018.7 0.0
 
Date/Time
EST
Temp
°C
App
Temp
°C
Dew
Point
Rel
Hum
%
Delta-T
°C
Wind Press
QNH
hPa
Press
MSL
hPa
Rain
since 9 am
mm
Dir
 
Spd
km/h
Gust
km/h
Spd
kts
Gust
kts
22/11:30pm 21.7 13.6 8.6 43 6.9 SSE 41 50 22 27 1019.0 - 0.0
22/11:00pm 21.6 15.4 12.5 56 5.2 S 37 46 20 25 1019.2 - 0.0
22/10:30pm 22.3 15.4 12.8 55 5.4 SSE 41 48 22 26 1019.5 - 0.0
22/10:00pm 22.5 16.6 15.6 65 4.1 SSE 41 48 22 26 1019.5 - 0.0
22/09:30pm 22.6 17.8 15.7 65 4.2 SSE 35 41 19 22 1019.4 - 0.0

Other Formats:

Comma delimited format used in spreadsheet applications
http://www.bom.gov.au/fwo/IDQ60801/IDQ60801.94368.axf

JavaScript Object Notation format (JSON) in row-major order
http://www.bom.gov.au/fwo/IDQ60801/IDQ60801.94368.json